sensor_id;sensor_type;location;lat;lon;timestamp;P1;durP1;ratioP1;P2;durP2;ratioP2
76731;SDS011;65656;51.130;13.658;2023-05-02T00:00:10;14.68;;;13.32;;
76731;SDS011;65656;51.130;13.658;2023-05-02T00:04:13;17.40;;;15.80;;
76731;SDS011;65656;51.130;13.658;2023-05-02T00:08:15;14.07;;;12.65;;
76731;SDS011;65656;51.130;13.658;2023-05-02T00:12:17;13.82;;;12.70;;
76731;SDS011;65656;51.130;13.658;2023-05-02T00:16:18;13.00;;;11.77;;
76731;SDS011;65656;51.130;13.658;2023-05-02T00:20:21;14.13;;;12.10;;
76731;SDS011;65656;51.130;13.658;2023-05-02T00:24:23;14.57;;;13.00;;
76731;SDS011;65656;51.130;13.658;2023-05-02T00:28:25;19.05;;;17.55;;
76731;SDS011;65656;51.130;13.658;2023-05-02T00:32:26;16.73;;;15.00;;
76731;SDS011;65656;51.130;13.658;2023-05-02T00:36:29;14.95;;;13.60;;
76731;SDS011;65656;51.130;13.658;2023-05-02T00:40:37;14.48;;;13.25;;
76731;SDS011;65656;51.130;13.658;2023-05-02T00:44:42;15.32;;;13.77;;
76731;SDS011;65656;51.130;13.658;2023-05-02T00:48:44;15.43;;;13.90;;
76731;SDS011;65656;51.130;13.658;2023-05-02T00:52:47;16.73;;;15.30;;
76731;SDS011;65656;51.130;13.658;2023-05-02T00:56:49;13.13;;;11.80;;
76731;SDS011;65656;51.130;13.658;2023-05-02T01:00:55;14.00;;;12.23;;
76731;SDS011;65656;51.130;13.658;2023-05-02T01:05:09;12.70;;;11.40;;
76731;SDS011;65656;51.130;13.658;2023-05-02T01:09:19;11.23;;;9.90;;
76731;SDS011;65656;51.130;13.658;2023-05-02T01:13:27;12.40;;;11.18;;
76731;SDS011;65656;51.130;13.658;2023-05-02T01:17:32;14.45;;;12.98;;
76731;SDS011;65656;51.130;13.658;2023-05-02T01:21:36;12.82;;;11.63;;
76731;SDS011;65656;51.130;13.658;2023-05-02T01:25:46;14.95;;;13.43;;
76731;SDS011;65656;51.130;13.658;2023-05-02T01:30:02;16.02;;;14.63;;
76731;SDS011;65656;51.130;13.658;2023-05-02T01:34:07;14.70;;;12.32;;
76731;SDS011;65656;51.130;13.658;2023-05-02T01:38:11;15.93;;;12.13;;
76731;SDS011;65656;51.130;13.658;2023-05-02T01:42:15;12.07;;;10.88;;
76731;SDS011;65656;51.130;13.658;2023-05-02T01:46:21;18.38;;;16.88;;
76731;SDS011;65656;51.130;13.658;2023-05-02T01:50:25;14.13;;;12.75;;
76731;SDS011;65656;51.130;13.658;2023-05-02T01:54:27;14.38;;;11.90;;
76731;SDS011;65656;51.130;13.658;2023-05-02T01:58:30;14.45;;;13.10;;
76731;SDS011;65656;51.130;13.658;2023-05-02T02:02:37;15.70;;;14.18;;
76731;SDS011;65656;51.130;13.658;2023-05-02T02:06:42;16.67;;;15.20;;
76731;SDS011;65656;51.130;13.658;2023-05-02T02:10:48;13.38;;;12.02;;
76731;SDS011;65656;51.130;13.658;2023-05-02T02:14:58;13.95;;;12.60;;
76731;SDS011;65656;51.130;13.658;2023-05-02T02:19:11;14.45;;;12.75;;
76731;SDS011;65656;51.130;13.658;2023-05-02T02:23:14;13.52;;;12.23;;
76731;SDS011;65656;51.130;13.658;2023-05-02T02:27:18;14.45;;;13.10;;
76731;SDS011;65656;51.130;13.658;2023-05-02T02:31:20;14.95;;;13.40;;
76731;SDS011;65656;51.130;13.658;2023-05-02T02:35:23;14.23;;;12.82;;
76731;SDS011;65656;51.130;13.658;2023-05-02T02:39:34;13.93;;;12.35;;
76731;SDS011;65656;51.130;13.658;2023-05-02T02:43:47;13.48;;;12.15;;
76731;SDS011;65656;51.130;13.658;2023-05-02T02:47:56;19.77;;;17.48;;
76731;SDS011;65656;51.130;13.658;2023-05-02T02:52:10;14.70;;;12.82;;
76731;SDS011;65656;51.130;13.658;2023-05-02T02:56:19;15.38;;;13.95;;
76731;SDS011;65656;51.130;13.658;2023-05-02T03:00:26;16.90;;;15.48;;
76731;SDS011;65656;51.130;13.658;2023-05-02T03:04:29;12.82;;;11.25;;
76731;SDS011;65656;51.130;13.658;2023-05-02T03:08:38;13.60;;;12.25;;
76731;SDS011;65656;51.130;13.658;2023-05-02T03:12:40;17.55;;;16.08;;
76731;SDS011;65656;51.130;13.658;2023-05-02T03:16:42;13.55;;;11.85;;
76731;SDS011;65656;51.130;13.658;2023-05-02T03:20:44;14.23;;;12.90;;
76731;SDS011;65656;51.130;13.658;2023-05-02T03:24:47;15.32;;;14.02;;
76731;SDS011;65656;51.130;13.658;2023-05-02T03:28:48;15.35;;;13.95;;
76731;SDS011;65656;51.130;13.658;2023-05-02T03:32:50;15.27;;;13.82;;
76731;SDS011;65656;51.130;13.658;2023-05-02T03:36:51;11.07;;;9.80;;
76731;SDS011;65656;51.130;13.658;2023-05-02T03:40:56;11.35;;;10.18;;
76731;SDS011;65656;51.130;13.658;2023-05-02T03:44:58;13.35;;;12.05;;
76731;SDS011;65656;51.130;13.658;2023-05-02T03:49:00;15.98;;;14.52;;
76731;SDS011;65656;51.130;13.658;2023-05-02T03:53:01;12.85;;;10.88;;
76731;SDS011;65656;51.130;13.658;2023-05-02T03:57:04;14.77;;;11.23;;
76731;SDS011;65656;51.130;13.658;2023-05-02T04:01:12;13.63;;;11.85;;
76731;SDS011;65656;51.130;13.658;2023-05-02T04:05:14;16.92;;;15.50;;
76731;SDS011;65656;51.130;13.658;2023-05-02T04:09:15;13.18;;;11.93;;
76731;SDS011;65656;51.130;13.658;2023-05-02T04:13:18;12.80;;;11.55;;
76731;SDS011;65656;51.130;13.658;2023-05-02T04:17:20;13.63;;;11.65;;
76731;SDS011;65656;51.130;13.658;2023-05-02T04:21:22;13.02;;;11.00;;
76731;SDS011;65656;51.130;13.658;2023-05-02T04:25:23;15.38;;;14.13;;
76731;SDS011;65656;51.130;13.658;2023-05-02T04:29:26;11.55;;;10.48;;
76731;SDS011;65656;51.130;13.658;2023-05-02T04:33:28;14.10;;;11.73;;
76731;SDS011;65656;51.130;13.658;2023-05-02T04:37:29;12.48;;;11.35;;
76731;SDS011;65656;51.130;13.658;2023-05-02T04:41:31;10.55;;;9.63;;
76731;SDS011;65656;51.130;13.658;2023-05-02T04:45:34;16.48;;;15.02;;
76731;SDS011;65656;51.130;13.658;2023-05-02T04:49:36;12.48;;;11.38;;
76731;SDS011;65656;51.130;13.658;2023-05-02T04:53:38;15.93;;;14.45;;
76731;SDS011;65656;51.130;13.658;2023-05-02T04:57:39;16.10;;;14.85;;
76731;SDS011;65656;51.130;13.658;2023-05-02T05:01:42;13.88;;;12.68;;
76731;SDS011;65656;51.130;13.658;2023-05-02T05:05:44;11.88;;;10.43;;
76731;SDS011;65656;51.130;13.658;2023-05-02T05:09:46;11.13;;;7.75;;
76731;SDS011;65656;51.130;13.658;2023-05-02T05:13:47;10.95;;;8.75;;
76731;SDS011;65656;51.130;13.658;2023-05-02T05:17:50;10.70;;;9.68;;
76731;SDS011;65656;51.130;13.658;2023-05-02T05:21:52;8.40;;;7.38;;
76731;SDS011;65656;51.130;13.658;2023-05-02T05:25:53;8.68;;;7.72;;
76731;SDS011;65656;51.130;13.658;2023-05-02T05:29:55;10.85;;;9.85;;
76731;SDS011;65656;51.130;13.658;2023-05-02T05:33:58;9.07;;;8.18;;
76731;SDS011;65656;51.130;13.658;2023-05-02T05:38:00;9.38;;;8.48;;
76731;SDS011;65656;51.130;13.658;2023-05-02T05:42:02;10.57;;;9.55;;
76731;SDS011;65656;51.130;13.658;2023-05-02T05:46:03;9.60;;;8.63;;
76731;SDS011;65656;51.130;13.658;2023-05-02T05:50:07;11.75;;;8.77;;
76731;SDS011;65656;51.130;13.658;2023-05-02T05:54:09;10.48;;;9.02;;
76731;SDS011;65656;51.130;13.658;2023-05-02T05:58:10;12.10;;;11.15;;
76731;SDS011;65656;51.130;13.658;2023-05-02T06:02:12;7.60;;;6.63;;
76731;SDS011;65656;51.130;13.658;2023-05-02T06:06:15;11.48;;;10.40;;
76731;SDS011;65656;51.130;13.658;2023-05-02T06:10:16;9.20;;;8.38;;
76731;SDS011;65656;51.130;13.658;2023-05-02T06:14:18;9.93;;;8.43;;
76731;SDS011;65656;51.130;13.658;2023-05-02T06:18:20;9.95;;;7.75;;
76731;SDS011;65656;51.130;13.658;2023-05-02T06:22:23;11.45;;;7.68;;
76731;SDS011;65656;51.130;13.658;2023-05-02T06:26:24;10.30;;;8.35;;
76731;SDS011;65656;51.130;13.658;2023-05-02T06:30:26;10.60;;;8.77;;
76731;SDS011;65656;51.130;13.658;2023-05-02T06:34:27;8.95;;;6.55;;
76731;SDS011;65656;51.130;13.658;2023-05-02T06:38:33;13.90;;;11.70;;
76731;SDS011;65656;51.130;13.658;2023-05-02T06:42:34;9.70;;;8.60;;
76731;SDS011;65656;51.130;13.658;2023-05-02T06:46:36;10.25;;;8.38;;
76731;SDS011;65656;51.130;13.658;2023-05-02T06:50:37;9.45;;;7.18;;
76731;SDS011;65656;51.130;13.658;2023-05-02T06:54:40;11.98;;;10.95;;
76731;SDS011;65656;51.130;13.658;2023-05-02T06:58:42;9.88;;;7.72;;
76731;SDS011;65656;51.130;13.658;2023-05-02T07:02:44;11.73;;;10.73;;
76731;SDS011;65656;51.130;13.658;2023-05-02T07:06:46;11.10;;;10.02;;
76731;SDS011;65656;51.130;13.658;2023-05-02T07:10:49;7.22;;;5.25;;
76731;SDS011;65656;51.130;13.658;2023-05-02T07:14:51;11.52;;;10.52;;
76731;SDS011;65656;51.130;13.658;2023-05-02T07:18:52;6.30;;;5.70;;
76731;SDS011;65656;51.130;13.658;2023-05-02T07:22:54;9.52;;;8.60;;
76731;SDS011;65656;51.130;13.658;2023-05-02T07:26:57;10.15;;;9.13;;
76731;SDS011;65656;51.130;13.658;2023-05-02T07:30:58;9.65;;;7.03;;
76731;SDS011;65656;51.130;13.658;2023-05-02T07:35:00;11.05;;;10.02;;
76731;SDS011;65656;51.130;13.658;2023-05-02T07:39:02;17.05;;;8.77;;
76731;SDS011;65656;51.130;13.658;2023-05-02T07:43:05;6.88;;;6.25;;
76731;SDS011;65656;51.130;13.658;2023-05-02T07:47:08;9.15;;;7.00;;
76731;SDS011;65656;51.130;13.658;2023-05-02T07:51:10;6.40;;;5.68;;
76731;SDS011;65656;51.130;13.658;2023-05-02T07:55:13;7.45;;;6.20;;
76731;SDS011;65656;51.130;13.658;2023-05-02T07:59:16;8.52;;;5.72;;
76731;SDS011;65656;51.130;13.658;2023-05-02T08:03:17;6.53;;;5.82;;
76731;SDS011;65656;51.130;13.658;2023-05-02T08:07:19;8.27;;;7.43;;
76731;SDS011;65656;51.130;13.658;2023-05-02T08:11:21;10.02;;;9.07;;
76731;SDS011;65656;51.130;13.658;2023-05-02T08:15:25;7.95;;;7.00;;
76731;SDS011;65656;51.130;13.658;2023-05-02T08:19:27;8.98;;;5.32;;
76731;SDS011;65656;51.130;13.658;2023-05-02T08:23:28;8.30;;;7.20;;
76731;SDS011;65656;51.130;13.658;2023-05-02T08:27:30;10.15;;;9.32;;
76731;SDS011;65656;51.130;13.658;2023-05-02T08:31:33;9.55;;;8.70;;
76731;SDS011;65656;51.130;13.658;2023-05-02T08:35:34;7.25;;;6.63;;
76731;SDS011;65656;51.130;13.658;2023-05-02T08:39:36;9.18;;;8.18;;
76731;SDS011;65656;51.130;13.658;2023-05-02T08:43:38;6.68;;;6.05;;
76731;SDS011;65656;51.130;13.658;2023-05-02T08:47:41;7.22;;;6.05;;
76731;SDS011;65656;51.130;13.658;2023-05-02T08:51:43;6.32;;;5.70;;
76731;SDS011;65656;51.130;13.658;2023-05-02T08:55:46;10.80;;;7.70;;
76731;SDS011;65656;51.130;13.658;2023-05-02T08:59:49;9.52;;;8.52;;
76731;SDS011;65656;51.130;13.658;2023-05-02T09:03:52;8.93;;;8.02;;
76731;SDS011;65656;51.130;13.658;2023-05-02T09:07:54;8.50;;;7.43;;
76731;SDS011;65656;51.130;13.658;2023-05-02T09:11:56;10.60;;;9.43;;
76731;SDS011;65656;51.130;13.658;2023-05-02T09:15:57;8.55;;;7.43;;
76731;SDS011;65656;51.130;13.658;2023-05-02T09:20:01;8.18;;;7.45;;
76731;SDS011;65656;51.130;13.658;2023-05-02T09:24:13;7.47;;;6.45;;
76731;SDS011;65656;51.130;13.658;2023-05-02T09:28:15;9.13;;;6.95;;
76731;SDS011;65656;51.130;13.658;2023-05-02T09:32:17;7.15;;;6.43;;
76731;SDS011;65656;51.130;13.658;2023-05-02T09:36:20;10.10;;;9.02;;
76731;SDS011;65656;51.130;13.658;2023-05-02T09:40:22;12.35;;;10.80;;
76731;SDS011;65656;51.130;13.658;2023-05-02T09:44:24;12.50;;;10.80;;
76731;SDS011;65656;51.130;13.658;2023-05-02T09:48:27;12.50;;;8.02;;
76731;SDS011;65656;51.130;13.658;2023-05-02T09:52:31;14.27;;;12.90;;
76731;SDS011;65656;51.130;13.658;2023-05-02T09:56:34;14.23;;;12.80;;
76731;SDS011;65656;51.130;13.658;2023-05-02T10:00:52;18.38;;;16.75;;
76731;SDS011;65656;51.130;13.658;2023-05-02T10:04:54;11.88;;;10.45;;
76731;SDS011;65656;51.130;13.658;2023-05-02T10:08:58;14.05;;;12.68;;
76731;SDS011;65656;51.130;13.658;2023-05-02T10:13:02;15.13;;;13.52;;
76731;SDS011;65656;51.130;13.658;2023-05-02T10:17:06;14.30;;;12.90;;
76731;SDS011;65656;51.130;13.658;2023-05-02T10:21:13;13.80;;;11.00;;
76731;SDS011;65656;51.130;13.658;2023-05-02T10:25:18;16.38;;;10.95;;
76731;SDS011;65656;51.130;13.658;2023-05-02T10:29:21;13.70;;;11.43;;
76731;SDS011;65656;51.130;13.658;2023-05-02T10:33:22;14.50;;;10.63;;
76731;SDS011;65656;51.130;13.658;2023-05-02T10:37:24;17.95;;;15.80;;
76731;SDS011;65656;51.130;13.658;2023-05-02T10:41:29;15.73;;;14.13;;
76731;SDS011;65656;51.130;13.658;2023-05-02T10:45:34;16.42;;;14.20;;
76731;SDS011;65656;51.130;13.658;2023-05-02T10:49:45;14.52;;;11.30;;
76731;SDS011;65656;51.130;13.658;2023-05-02T10:53:50;15.50;;;13.35;;
76731;SDS011;65656;51.130;13.658;2023-05-02T11:11:36;15.55;;;12.65;;
76731;SDS011;65656;51.130;13.658;2023-05-02T11:15:55;12.88;;;9.98;;
76731;SDS011;65656;51.130;13.658;2023-05-02T11:24:36;9.23;;;8.10;;
76731;SDS011;65656;51.130;13.658;2023-05-02T11:28:39;11.93;;;10.73;;
76731;SDS011;65656;51.130;13.658;2023-05-02T11:37:17;12.63;;;9.80;;
76731;SDS011;65656;51.130;13.658;2023-05-02T11:41:19;11.48;;;10.35;;
76731;SDS011;65656;51.130;13.658;2023-05-02T11:45:21;13.10;;;11.73;;
76731;SDS011;65656;51.130;13.658;2023-05-02T11:49:34;15.65;;;13.00;;
76731;SDS011;65656;51.130;13.658;2023-05-02T11:53:38;13.63;;;12.27;;
76731;SDS011;65656;51.130;13.658;2023-05-02T11:57:40;13.05;;;11.68;;
76731;SDS011;65656;51.130;13.658;2023-05-02T12:01:48;11.05;;;9.93;;
76731;SDS011;65656;51.130;13.658;2023-05-02T12:05:51;13.27;;;11.15;;
76731;SDS011;65656;51.130;13.658;2023-05-02T12:09:53;16.05;;;14.70;;
76731;SDS011;65656;51.130;13.658;2023-05-02T12:13:55;15.20;;;13.80;;
76731;SDS011;65656;51.130;13.658;2023-05-02T12:17:56;14.65;;;13.40;;
76731;SDS011;65656;51.130;13.658;2023-05-02T12:22:00;14.20;;;12.90;;
76731;SDS011;65656;51.130;13.658;2023-05-02T12:26:14;12.13;;;10.15;;
76731;SDS011;65656;51.130;13.658;2023-05-02T12:30:24;12.90;;;11.77;;
76731;SDS011;65656;51.130;13.658;2023-05-02T12:34:32;11.77;;;10.55;;
76731;SDS011;65656;51.130;13.658;2023-05-02T12:38:35;10.77;;;9.77;;
76731;SDS011;65656;51.130;13.658;2023-05-02T12:42:36;23.73;;;22.17;;
76731;SDS011;65656;51.130;13.658;2023-05-02T12:46:40;9.82;;;8.48;;
76731;SDS011;65656;51.130;13.658;2023-05-02T12:50:58;11.32;;;10.20;;
76731;SDS011;65656;51.130;13.658;2023-05-02T12:55:15;13.95;;;12.73;;
76731;SDS011;65656;51.130;13.658;2023-05-02T12:59:26;8.57;;;7.68;;
76731;SDS011;65656;51.130;13.658;2023-05-02T13:03:28;10.07;;;8.73;;
76731;SDS011;65656;51.130;13.658;2023-05-02T13:07:30;11.00;;;9.50;;
76731;SDS011;65656;51.130;13.658;2023-05-02T13:11:33;13.00;;;8.82;;
76731;SDS011;65656;51.130;13.658;2023-05-02T13:15:35;12.52;;;10.70;;
76731;SDS011;65656;51.130;13.658;2023-05-02T13:19:36;14.45;;;12.95;;
76731;SDS011;65656;51.130;13.658;2023-05-02T13:23:45;15.55;;;13.43;;
76731;SDS011;65656;51.130;13.658;2023-05-02T13:27:48;14.63;;;13.20;;
76731;SDS011;65656;51.130;13.658;2023-05-02T13:31:50;14.80;;;12.45;;
76731;SDS011;65656;51.130;13.658;2023-05-02T13:35:52;17.80;;;16.17;;
76731;SDS011;65656;51.130;13.658;2023-05-02T13:39:53;16.40;;;14.68;;
76731;SDS011;65656;51.130;13.658;2023-05-02T13:43:56;15.93;;;14.40;;
76731;SDS011;65656;51.130;13.658;2023-05-02T13:47:58;15.13;;;13.52;;
76731;SDS011;65656;51.130;13.658;2023-05-02T13:52:00;12.68;;;11.38;;
76731;SDS011;65656;51.130;13.658;2023-05-02T13:56:02;13.07;;;11.70;;
76731;SDS011;65656;51.130;13.658;2023-05-02T14:00:06;15.23;;;13.80;;
76731;SDS011;65656;51.130;13.658;2023-05-02T14:04:08;13.40;;;11.20;;
76731;SDS011;65656;51.130;13.658;2023-05-02T14:08:10;13.65;;;11.18;;
76731;SDS011;65656;51.130;13.658;2023-05-02T14:12:12;12.50;;;10.48;;
76731;SDS011;65656;51.130;13.658;2023-05-02T14:16:15;12.85;;;11.30;;
76731;SDS011;65656;51.130;13.658;2023-05-02T14:20:17;14.23;;;10.38;;
76731;SDS011;65656;51.130;13.658;2023-05-02T14:24:19;12.85;;;9.88;;
76731;SDS011;65656;51.130;13.658;2023-05-02T14:28:21;13.88;;;11.45;;
76731;SDS011;65656;51.130;13.658;2023-05-02T14:32:24;12.32;;;8.95;;
76731;SDS011;65656;51.130;13.658;2023-05-02T14:36:25;11.05;;;9.65;;
76731;SDS011;65656;51.130;13.658;2023-05-02T14:40:27;10.18;;;7.15;;
76731;SDS011;65656;51.130;13.658;2023-05-02T14:44:29;11.55;;;10.38;;
76731;SDS011;65656;51.130;13.658;2023-05-02T14:48:32;10.55;;;9.43;;
76731;SDS011;65656;51.130;13.658;2023-05-02T14:52:33;9.93;;;8.88;;
76731;SDS011;65656;51.130;13.658;2023-05-02T14:56:35;10.43;;;9.35;;
76731;SDS011;65656;51.130;13.658;2023-05-02T15:00:37;12.82;;;11.63;;
76731;SDS011;65656;51.130;13.658;2023-05-02T15:04:40;9.57;;;8.32;;
76731;SDS011;65656;51.130;13.658;2023-05-02T15:08:42;9.05;;;7.57;;
76731;SDS011;65656;51.130;13.658;2023-05-02T15:12:44;9.68;;;7.38;;
76731;SDS011;65656;51.130;13.658;2023-05-02T15:16:46;6.13;;;4.93;;
76731;SDS011;65656;51.130;13.658;2023-05-02T15:20:49;4.70;;;4.20;;
76731;SDS011;65656;51.130;13.658;2023-05-02T15:24:50;6.93;;;6.40;;
76731;SDS011;65656;51.130;13.658;2023-05-02T15:28:52;6.18;;;4.10;;
76731;SDS011;65656;51.130;13.658;2023-05-02T15:32:54;5.60;;;3.78;;
76731;SDS011;65656;51.130;13.658;2023-05-02T15:36:58;7.28;;;6.65;;
76731;SDS011;65656;51.130;13.658;2023-05-02T15:41:00;8.35;;;7.50;;
76731;SDS011;65656;51.130;13.658;2023-05-02T15:45:02;7.30;;;6.35;;
76731;SDS011;65656;51.130;13.658;2023-05-02T15:49:04;8.32;;;7.50;;
76731;SDS011;65656;51.130;13.658;2023-05-02T15:53:07;8.07;;;7.15;;
76731;SDS011;65656;51.130;13.658;2023-05-02T15:57:09;8.05;;;7.13;;
76731;SDS011;65656;51.130;13.658;2023-05-02T16:01:10;9.55;;;5.07;;
76731;SDS011;65656;51.130;13.658;2023-05-02T16:05:12;7.82;;;7.05;;
76731;SDS011;65656;51.130;13.658;2023-05-02T16:09:15;7.15;;;5.93;;
76731;SDS011;65656;51.130;13.658;2023-05-02T16:13:17;7.18;;;6.00;;
76731;SDS011;65656;51.130;13.658;2023-05-02T16:17:19;6.72;;;6.03;;
76731;SDS011;65656;51.130;13.658;2023-05-02T16:21:20;8.48;;;6.97;;
76731;SDS011;65656;51.130;13.658;2023-05-02T16:25:23;7.75;;;7.13;;
76731;SDS011;65656;51.130;13.658;2023-05-02T16:29:25;11.93;;;10.88;;
76731;SDS011;65656;51.130;13.658;2023-05-02T16:33:27;9.50;;;8.63;;
76731;SDS011;65656;51.130;13.658;2023-05-02T16:37:28;11.52;;;10.55;;
76731;SDS011;65656;51.130;13.658;2023-05-02T16:41:32;10.68;;;9.85;;
76731;SDS011;65656;51.130;13.658;2023-05-02T16:45:34;7.22;;;6.53;;
76731;SDS011;65656;51.130;13.658;2023-05-02T16:49:36;11.80;;;9.07;;
76731;SDS011;65656;51.130;13.658;2023-05-02T16:53:38;7.80;;;7.18;;
76731;SDS011;65656;51.130;13.658;2023-05-02T16:57:41;9.43;;;7.60;;
76731;SDS011;65656;51.130;13.658;2023-05-02T17:01:42;6.90;;;6.28;;
76731;SDS011;65656;51.130;13.658;2023-05-02T17:05:44;8.52;;;7.75;;
76731;SDS011;65656;51.130;13.658;2023-05-02T17:09:46;7.85;;;7.10;;
76731;SDS011;65656;51.130;13.658;2023-05-02T17:13:49;6.45;;;4.75;;
76731;SDS011;65656;51.130;13.658;2023-05-02T17:17:50;12.45;;;11.55;;
76731;SDS011;65656;51.130;13.658;2023-05-02T17:21:52;8.10;;;6.20;;
76731;SDS011;65656;51.130;13.658;2023-05-02T17:25:54;9.68;;;6.20;;
76731;SDS011;65656;51.130;13.658;2023-05-02T17:29:57;7.47;;;5.53;;
76731;SDS011;65656;51.130;13.658;2023-05-02T17:33:59;9.63;;;8.48;;
76731;SDS011;65656;51.130;13.658;2023-05-02T17:38:01;6.97;;;4.28;;
76731;SDS011;65656;51.130;13.658;2023-05-02T17:42:03;7.00;;;5.78;;
76731;SDS011;65656;51.130;13.658;2023-05-02T17:46:09;6.40;;;5.63;;
76731;SDS011;65656;51.130;13.658;2023-05-02T17:50:11;13.85;;;12.95;;
76731;SDS011;65656;51.130;13.658;2023-05-02T17:54:12;13.00;;;12.05;;
76731;SDS011;65656;51.130;13.658;2023-05-02T17:58:14;9.63;;;8.82;;
76731;SDS011;65656;51.130;13.658;2023-05-02T18:02:17;8.20;;;7.50;;
76731;SDS011;65656;51.130;13.658;2023-05-02T18:06:19;9.13;;;8.35;;
76731;SDS011;65656;51.130;13.658;2023-05-02T18:10:21;8.60;;;7.03;;
76731;SDS011;65656;51.130;13.658;2023-05-02T18:14:22;11.30;;;10.27;;
76731;SDS011;65656;51.130;13.658;2023-05-02T18:18:25;7.75;;;7.07;;
76731;SDS011;65656;51.130;13.658;2023-05-02T18:22:27;6.40;;;4.93;;
76731;SDS011;65656;51.130;13.658;2023-05-02T18:26:28;6.53;;;5.13;;
76731;SDS011;65656;51.130;13.658;2023-05-02T18:30:30;10.80;;;7.85;;
76731;SDS011;65656;51.130;13.658;2023-05-02T18:34:37;11.65;;;10.65;;
76731;SDS011;65656;51.130;13.658;2023-05-02T18:38:39;7.72;;;5.00;;
76731;SDS011;65656;51.130;13.658;2023-05-02T18:42:41;5.53;;;5.03;;
76731;SDS011;65656;51.130;13.658;2023-05-02T18:46:42;7.65;;;6.93;;
76731;SDS011;65656;51.130;13.658;2023-05-02T18:50:45;8.20;;;7.50;;
76731;SDS011;65656;51.130;13.658;2023-05-02T18:54:47;9.07;;;8.18;;
76731;SDS011;65656;51.130;13.658;2023-05-02T18:58:49;6.32;;;5.20;;
76731;SDS011;65656;51.130;13.658;2023-05-02T19:02:51;9.35;;;8.43;;
76731;SDS011;65656;51.130;13.658;2023-05-02T19:06:54;5.65;;;5.03;;
76731;SDS011;65656;51.130;13.658;2023-05-02T19:10:55;8.77;;;8.00;;
76731;SDS011;65656;51.130;13.658;2023-05-02T19:14:57;6.25;;;4.85;;
76731;SDS011;65656;51.130;13.658;2023-05-02T19:18:59;7.60;;;6.43;;
76731;SDS011;65656;51.130;13.658;2023-05-02T19:23:02;4.60;;;3.72;;
76731;SDS011;65656;51.130;13.658;2023-05-02T19:27:20;5.60;;;4.47;;
76731;SDS011;65656;51.130;13.658;2023-05-02T19:31:21;8.65;;;6.30;;
76731;SDS011;65656;51.130;13.658;2023-05-02T19:35:23;6.13;;;4.88;;
76731;SDS011;65656;51.130;13.658;2023-05-02T19:39:26;7.38;;;4.45;;
76731;SDS011;65656;51.130;13.658;2023-05-02T19:43:28;7.13;;;6.50;;
76731;SDS011;65656;51.130;13.658;2023-05-02T19:47:30;8.48;;;7.72;;
76731;SDS011;65656;51.130;13.658;2023-05-02T19:51:31;10.20;;;9.30;;
76731;SDS011;65656;51.130;13.658;2023-05-02T19:55:34;11.02;;;7.60;;
76731;SDS011;65656;51.130;13.658;2023-05-02T19:59:36;8.30;;;6.57;;
76731;SDS011;65656;51.130;13.658;2023-05-02T20:03:37;9.25;;;8.57;;
76731;SDS011;65656;51.130;13.658;2023-05-02T20:07:39;10.05;;;8.30;;
76731;SDS011;65656;51.130;13.658;2023-05-02T20:11:42;11.43;;;10.48;;
76731;SDS011;65656;51.130;13.658;2023-05-02T20:15:44;9.77;;;8.07;;
76731;SDS011;65656;51.130;13.658;2023-05-02T20:19:48;17.88;;;16.85;;
76731;SDS011;65656;51.130;13.658;2023-05-02T20:23:50;8.98;;;8.10;;
76731;SDS011;65656;51.130;13.658;2023-05-02T20:27:53;9.45;;;8.75;;
76731;SDS011;65656;51.130;13.658;2023-05-02T20:31:54;7.60;;;6.43;;
76731;SDS011;65656;51.130;13.658;2023-05-02T20:35:56;9.18;;;8.27;;
76731;SDS011;65656;51.130;13.658;2023-05-02T20:39:58;8.82;;;8.15;;
76731;SDS011;65656;51.130;13.658;2023-05-02T20:44:02;13.23;;;12.07;;
76731;SDS011;65656;51.130;13.658;2023-05-02T20:48:03;11.43;;;10.32;;
76731;SDS011;65656;51.130;13.658;2023-05-02T20:52:05;10.07;;;9.05;;
76731;SDS011;65656;51.130;13.658;2023-05-02T20:56:07;8.70;;;7.88;;
76731;SDS011;65656;51.130;13.658;2023-05-02T21:00:10;12.15;;;9.27;;
76731;SDS011;65656;51.130;13.658;2023-05-02T21:04:12;11.45;;;9.38;;
76731;SDS011;65656;51.130;13.658;2023-05-02T21:08:14;19.85;;;18.13;;
76731;SDS011;65656;51.130;13.658;2023-05-02T21:12:15;8.95;;;7.32;;
76731;SDS011;65656;51.130;13.658;2023-05-02T21:16:19;9.82;;;8.90;;
76731;SDS011;65656;51.130;13.658;2023-05-02T21:20:21;10.02;;;8.82;;
76731;SDS011;65656;51.130;13.658;2023-05-02T21:24:22;11.48;;;10.05;;
76731;SDS011;65656;51.130;13.658;2023-05-02T21:28:24;9.00;;;8.27;;
76731;SDS011;65656;51.130;13.658;2023-05-02T21:32:27;16.13;;;14.93;;
76731;SDS011;65656;51.130;13.658;2023-05-02T21:36:28;10.43;;;9.68;;
76731;SDS011;65656;51.130;13.658;2023-05-02T21:40:32;12.15;;;11.00;;
76731;SDS011;65656;51.130;13.658;2023-05-02T21:44:34;13.73;;;12.80;;
76731;SDS011;65656;51.130;13.658;2023-05-02T21:48:37;10.57;;;7.40;;
76731;SDS011;65656;51.130;13.658;2023-05-02T21:52:39;14.35;;;11.90;;
76731;SDS011;65656;51.130;13.658;2023-05-02T21:56:41;10.77;;;9.77;;
76731;SDS011;65656;51.130;13.658;2023-05-02T22:00:43;11.95;;;9.25;;
76731;SDS011;65656;51.130;13.658;2023-05-02T22:04:46;17.05;;;15.93;;
76731;SDS011;65656;51.130;13.658;2023-05-02T22:08:47;11.35;;;10.38;;
76731;SDS011;65656;51.130;13.658;2023-05-02T22:12:49;11.45;;;10.57;;
76731;SDS011;65656;51.130;13.658;2023-05-02T22:16:50;14.18;;;12.80;;
76731;SDS011;65656;51.130;13.658;2023-05-02T22:20:53;16.15;;;14.88;;
76731;SDS011;65656;51.130;13.658;2023-05-02T22:24:55;16.70;;;15.48;;
76731;SDS011;65656;51.130;13.658;2023-05-02T22:28:56;15.93;;;14.80;;
76731;SDS011;65656;51.130;13.658;2023-05-02T22:32:58;11.18;;;10.02;;
76731;SDS011;65656;51.130;13.658;2023-05-02T22:37:01;10.63;;;8.43;;
76731;SDS011;65656;51.130;13.658;2023-05-02T22:41:02;11.48;;;10.40;;
76731;SDS011;65656;51.130;13.658;2023-05-02T22:45:04;9.30;;;8.45;;
76731;SDS011;65656;51.130;13.658;2023-05-02T22:49:07;12.70;;;11.68;;
76731;SDS011;65656;51.130;13.658;2023-05-02T22:53:10;10.23;;;9.27;;
76731;SDS011;65656;51.130;13.658;2023-05-02T22:57:11;10.18;;;8.50;;
76731;SDS011;65656;51.130;13.658;2023-05-02T23:01:13;17.48;;;16.00;;
76731;SDS011;65656;51.130;13.658;2023-05-02T23:05:15;11.63;;;10.52;;
76731;SDS011;65656;51.130;13.658;2023-05-02T23:09:17;14.93;;;13.35;;
76731;SDS011;65656;51.130;13.658;2023-05-02T23:13:19;15.57;;;14.32;;
76731;SDS011;65656;51.130;13.658;2023-05-02T23:17:21;10.18;;;9.10;;
76731;SDS011;65656;51.130;13.658;2023-05-02T23:21:23;13.00;;;11.85;;
76731;SDS011;65656;51.130;13.658;2023-05-02T23:25:26;9.13;;;8.10;;
76731;SDS011;65656;51.130;13.658;2023-05-02T23:29:27;8.88;;;8.07;;
76731;SDS011;65656;51.130;13.658;2023-05-02T23:33:29;16.65;;;15.10;;
76731;SDS011;65656;51.130;13.658;2023-05-02T23:37:31;14.68;;;13.50;;
76731;SDS011;65656;51.130;13.658;2023-05-02T23:41:35;13.10;;;11.90;;
76731;SDS011;65656;51.130;13.658;2023-05-02T23:45:37;14.32;;;13.25;;
76731;SDS011;65656;51.130;13.658;2023-05-02T23:49:39;11.85;;;9.30;;
76731;SDS011;65656;51.130;13.658;2023-05-02T23:53:40;11.68;;;8.88;;
76731;SDS011;65656;51.130;13.658;2023-05-02T23:57:43;11.05;;;10.02;;
